sensor_id;sensor_type;location;lat;lon;timestamp;noise_LAeq;noise_LA_min;noise_LA_max;noise_LA01;noise_LA95
67900;Laerm;54700;51.796;10.956;2024-01-10T00:01:44;30.53;28.13;39.19;;
67900;Laerm;54700;51.796;10.956;2024-01-10T00:04:11;29.82;28.06;38.72;;
67900;Laerm;54700;51.796;10.956;2024-01-10T00:06:39;30.97;28.71;38.47;;
67900;Laerm;54700;51.796;10.956;2024-01-10T00:09:07;51.22;29.02;67.80;;
67900;Laerm;54700;51.796;10.956;2024-01-10T00:11:35;31.06;28.24;39.38;;
67900;Laerm;54700;51.796;10.956;2024-01-10T00:14:03;30.35;28.21;39.35;;
67900;Laerm;54700;51.796;10.956;2024-01-10T00:16:30;30.16;27.89;48.25;;
67900;Laerm;54700;51.796;10.956;2024-01-10T00:18:56;29.52;28.09;41.97;;
67900;Laerm;54700;51.796;10.956;2024-01-10T00:21:24;29.41;27.81;38.73;;
67900;Laerm;54700;51.796;10.956;2024-01-10T00:23:50;51.97;27.91;67.68;;
67900;Laerm;54700;51.796;10.956;2024-01-10T00:26:17;51.89;28.25;67.04;;
67900;Laerm;54700;51.796;10.956;2024-01-10T00:28:46;46.21;28.33;65.12;;
67900;Laerm;54700;51.796;10.956;2024-01-10T00:31:12;50.45;28.45;67.86;;
67900;Laerm;54700;51.796;10.956;2024-01-10T00:33:40;47.11;28.31;66.14;;
67900;Laerm;54700;51.796;10.956;2024-01-10T00:36:07;49.14;28.47;68.92;;
67900;Laerm;54700;51.796;10.956;2024-01-10T00:38:34;50.32;28.26;66.81;;
67900;Laerm;54700;51.796;10.956;2024-01-10T00:41:00;30.73;28.39;38.56;;
67900;Laerm;54700;51.796;10.956;2024-01-10T00:43:28;29.81;27.86;38.62;;
67900;Laerm;54700;51.796;10.956;2024-01-10T00:45:56;29.72;28.05;38.17;;
67900;Laerm;54700;51.796;10.956;2024-01-10T00:48:23;30.51;28.06;39.44;;
67900;Laerm;54700;51.796;10.956;2024-01-10T00:50:50;30.33;28.24;38.73;;
67900;Laerm;54700;51.796;10.956;2024-01-10T00:53:17;30.70;28.38;38.65;;
67900;Laerm;54700;51.796;10.956;2024-01-10T00:55:44;30.10;28.16;38.84;;
67900;Laerm;54700;51.796;10.956;2024-01-10T00:58:11;29.51;27.88;37.17;;
67900;Laerm;54700;51.796;10.956;2024-01-10T01:00:38;29.51;27.86;38.94;;
67900;Laerm;54700;51.796;10.956;2024-01-10T01:03:07;30.22;28.20;39.54;;
67900;Laerm;54700;51.796;10.956;2024-01-10T01:05:36;29.69;27.92;39.89;;
67900;Laerm;54700;51.796;10.956;2024-01-10T01:08:03;29.82;27.88;38.28;;
67900;Laerm;54700;51.796;10.956;2024-01-10T01:10:31;30.04;28.02;37.45;;
67900;Laerm;54700;51.796;10.956;2024-01-10T01:12:58;31.21;28.11;40.10;;
67900;Laerm;54700;51.796;10.956;2024-01-10T01:15:25;51.09;28.48;68.47;;
67900;Laerm;54700;51.796;10.956;2024-01-10T01:17:52;30.06;28.15;49.37;;
67900;Laerm;54700;51.796;10.956;2024-01-10T01:20:20;30.77;28.32;38.02;;
67900;Laerm;54700;51.796;10.956;2024-01-10T01:22:47;52.68;27.99;69.90;;
67900;Laerm;54700;51.796;10.956;2024-01-10T01:25:15;31.21;28.28;41.29;;
67900;Laerm;54700;51.796;10.956;2024-01-10T01:27:42;31.15;28.08;39.83;;
67900;Laerm;54700;51.796;10.956;2024-01-10T01:30:11;30.02;28.30;39.70;;
67900;Laerm;54700;51.796;10.956;2024-01-10T01:32:38;30.03;28.23;38.83;;
67900;Laerm;54700;51.796;10.956;2024-01-10T01:35:05;37.75;27.76;52.77;;
67900;Laerm;54700;51.796;10.956;2024-01-10T01:37:34;45.66;28.28;60.35;;
67900;Laerm;54700;51.796;10.956;2024-01-10T01:40:01;55.87;28.36;72.00;;
67900;Laerm;54700;51.796;10.956;2024-01-10T01:42:28;30.30;28.32;37.05;;
67900;Laerm;54700;51.796;10.956;2024-01-10T01:44:55;30.77;28.75;39.38;;
67900;Laerm;54700;51.796;10.956;2024-01-10T01:47:22;30.39;28.13;39.46;;
67900;Laerm;54700;51.796;10.956;2024-01-10T01:49:49;29.70;27.92;37.94;;
67900;Laerm;54700;51.796;10.956;2024-01-10T01:52:15;29.52;27.84;37.45;;
67900;Laerm;54700;51.796;10.956;2024-01-10T01:54:44;30.31;28.09;39.03;;
67900;Laerm;54700;51.796;10.956;2024-01-10T01:57:11;33.04;28.33;43.48;;
67900;Laerm;54700;51.796;10.956;2024-01-10T01:59:38;32.96;28.87;41.10;;
67900;Laerm;54700;51.796;10.956;2024-01-10T02:02:05;30.06;28.26;37.40;;
67900;Laerm;54700;51.796;10.956;2024-01-10T02:04:33;46.61;29.15;61.51;;
67900;Laerm;54700;51.796;10.956;2024-01-10T02:07:01;32.40;28.27;38.11;;
67900;Laerm;54700;51.796;10.956;2024-01-10T02:09:28;30.39;28.44;37.54;;
67900;Laerm;54700;51.796;10.956;2024-01-10T02:12:00;47.27;28.50;64.15;;
67900;Laerm;54700;51.796;10.956;2024-01-10T02:14:27;31.63;28.78;42.49;;
67900;Laerm;54700;51.796;10.956;2024-01-10T02:16:55;31.11;28.36;46.99;;
67900;Laerm;54700;51.796;10.956;2024-01-10T02:19:23;45.73;28.28;60.55;;
67900;Laerm;54700;51.796;10.956;2024-01-10T02:21:52;31.07;28.67;39.87;;
67900;Laerm;54700;51.796;10.956;2024-01-10T02:24:19;53.13;28.84;70.17;;
67900;Laerm;54700;51.796;10.956;2024-01-10T02:26:49;31.06;28.40;39.37;;
67900;Laerm;54700;51.796;10.956;2024-01-10T02:29:16;31.55;28.88;39.91;;
67900;Laerm;54700;51.796;10.956;2024-01-10T02:31:44;31.59;28.52;39.45;;
67900;Laerm;54700;51.796;10.956;2024-01-10T02:34:11;30.88;28.48;38.81;;
67900;Laerm;54700;51.796;10.956;2024-01-10T02:36:38;51.15;28.57;66.68;;
67900;Laerm;54700;51.796;10.956;2024-01-10T02:39:05;54.88;29.12;71.41;;
67900;Laerm;54700;51.796;10.956;2024-01-10T02:41:32;31.50;29.26;39.18;;
67900;Laerm;54700;51.796;10.956;2024-01-10T02:44:04;52.43;29.15;67.88;;
67900;Laerm;54700;51.796;10.956;2024-01-10T02:46:31;32.28;28.77;42.40;;
67900;Laerm;54700;51.796;10.956;2024-01-10T02:48:58;30.94;28.40;38.04;;
67900;Laerm;54700;51.796;10.956;2024-01-10T02:51:28;32.43;28.21;41.49;;
67900;Laerm;54700;51.796;10.956;2024-01-10T02:53:57;31.32;29.07;38.87;;
67900;Laerm;54700;51.796;10.956;2024-01-10T02:56:24;32.52;29.21;39.56;;
67900;Laerm;54700;51.796;10.956;2024-01-10T02:58:51;32.31;29.31;38.11;;
67900;Laerm;54700;51.796;10.956;2024-01-10T03:01:19;51.20;29.65;66.68;;
67900;Laerm;54700;51.796;10.956;2024-01-10T03:03:46;51.96;28.85;68.32;;
67900;Laerm;54700;51.796;10.956;2024-01-10T03:06:13;51.06;29.00;67.62;;
67900;Laerm;54700;51.796;10.956;2024-01-10T03:08:40;56.91;29.40;74.19;;
67900;Laerm;54700;51.796;10.956;2024-01-10T03:11:07;32.88;29.21;43.60;;
67900;Laerm;54700;51.796;10.956;2024-01-10T03:13:34;49.58;29.71;65.40;;
67900;Laerm;54700;51.796;10.956;2024-01-10T03:16:01;43.40;30.54;64.44;;
67900;Laerm;54700;51.796;10.956;2024-01-10T03:18:29;54.64;28.90;70.81;;
67900;Laerm;54700;51.796;10.956;2024-01-10T03:20:56;53.96;29.06;71.03;;
67900;Laerm;54700;51.796;10.956;2024-01-10T03:23:23;32.11;29.48;38.95;;
67900;Laerm;54700;51.796;10.956;2024-01-10T03:25:50;51.92;29.46;68.15;;
67900;Laerm;54700;51.796;10.956;2024-01-10T03:28:17;32.98;29.87;41.11;;
67900;Laerm;54700;51.796;10.956;2024-01-10T03:30:44;57.07;30.29;72.67;;
67900;Laerm;54700;51.796;10.956;2024-01-10T03:33:11;57.05;31.06;70.43;;
67900;Laerm;54700;51.796;10.956;2024-01-10T03:35:39;48.90;30.63;64.58;;
67900;Laerm;54700;51.796;10.956;2024-01-10T03:38:06;48.67;30.19;66.66;;
67900;Laerm;54700;51.796;10.956;2024-01-10T03:40:34;32.53;29.87;43.92;;
67900;Laerm;54700;51.796;10.956;2024-01-10T03:43:01;54.82;30.48;68.94;;
67900;Laerm;54700;51.796;10.956;2024-01-10T03:45:29;33.13;30.13;39.59;;
67900;Laerm;54700;51.796;10.956;2024-01-10T03:47:56;35.48;30.30;54.29;;
67900;Laerm;54700;51.796;10.956;2024-01-10T03:50:23;54.10;30.40;68.04;;
67900;Laerm;54700;51.796;10.956;2024-01-10T03:52:52;51.98;29.91;70.07;;
67900;Laerm;54700;51.796;10.956;2024-01-10T03:55:18;51.62;30.17;66.03;;
67900;Laerm;54700;51.796;10.956;2024-01-10T03:57:45;55.74;31.08;71.49;;
67900;Laerm;54700;51.796;10.956;2024-01-10T04:00:13;57.19;30.54;71.17;;
67900;Laerm;54700;51.796;10.956;2024-01-10T04:02:39;54.38;30.64;70.04;;
67900;Laerm;54700;51.796;10.956;2024-01-10T04:05:10;56.37;31.74;69.18;;
67900;Laerm;54700;51.796;10.956;2024-01-10T04:07:39;35.32;30.41;47.02;;
67900;Laerm;54700;51.796;10.956;2024-01-10T04:10:08;59.26;31.40;70.50;;
67900;Laerm;54700;51.796;10.956;2024-01-10T04:12:36;57.05;33.60;70.99;;
67900;Laerm;54700;51.796;10.956;2024-01-10T04:15:04;55.95;32.21;70.09;;
67900;Laerm;54700;51.796;10.956;2024-01-10T04:17:31;58.28;33.09;70.10;;
67900;Laerm;54700;51.796;10.956;2024-01-10T04:19:58;53.75;31.44;70.54;;
67900;Laerm;54700;51.796;10.956;2024-01-10T04:22:25;57.24;31.11;70.34;;
67900;Laerm;54700;51.796;10.956;2024-01-10T04:24:53;57.73;31.08;70.11;;
67900;Laerm;54700;51.796;10.956;2024-01-10T04:27:21;60.26;32.49;71.73;;
67900;Laerm;54700;51.796;10.956;2024-01-10T04:29:48;60.31;31.94;76.04;;
67900;Laerm;54700;51.796;10.956;2024-01-10T04:32:15;62.17;32.82;71.47;;
67900;Laerm;54700;51.796;10.956;2024-01-10T04:34:41;58.85;34.76;68.58;;
67900;Laerm;54700;51.796;10.956;2024-01-10T04:37:08;61.04;32.45;70.71;;
67900;Laerm;54700;51.796;10.956;2024-01-10T04:39:36;61.98;37.78;72.63;;
67900;Laerm;54700;51.796;10.956;2024-01-10T04:42:03;59.98;36.86;73.06;;
67900;Laerm;54700;51.796;10.956;2024-01-10T04:44:32;57.76;33.53;71.73;;
67900;Laerm;54700;51.796;10.956;2024-01-10T04:46:59;61.15;33.72;71.35;;
67900;Laerm;54700;51.796;10.956;2024-01-10T04:49:26;58.84;32.69;71.31;;
67900;Laerm;54700;51.796;10.956;2024-01-10T04:51:52;59.43;35.32;71.05;;
67900;Laerm;54700;51.796;10.956;2024-01-10T04:54:19;60.91;39.31;70.81;;
67900;Laerm;54700;51.796;10.956;2024-01-10T04:56:47;59.58;37.08;70.48;;
67900;Laerm;54700;51.796;10.956;2024-01-10T04:59:14;60.02;34.52;72.49;;
67900;Laerm;54700;51.796;10.956;2024-01-10T05:01:42;58.90;35.02;71.14;;
67900;Laerm;54700;51.796;10.956;2024-01-10T05:04:10;62.61;37.54;84.10;;
67900;Laerm;54700;51.796;10.956;2024-01-10T05:06:36;63.66;33.30;73.54;;
67900;Laerm;54700;51.796;10.956;2024-01-10T05:09:03;61.73;34.77;72.95;;
67900;Laerm;54700;51.796;10.956;2024-01-10T05:11:30;61.49;34.66;70.62;;
67900;Laerm;54700;51.796;10.956;2024-01-10T05:13:57;60.08;33.32;70.97;;
67900;Laerm;54700;51.796;10.956;2024-01-10T05:16:24;60.47;34.51;70.23;;
67900;Laerm;54700;51.796;10.956;2024-01-10T05:18:52;61.27;35.53;75.38;;
67900;Laerm;54700;51.796;10.956;2024-01-10T05:21:20;63.51;40.90;71.01;;
67900;Laerm;54700;51.796;10.956;2024-01-10T05:23:48;58.56;34.19;70.84;;
67900;Laerm;54700;51.796;10.956;2024-01-10T05:26:14;61.98;34.58;70.45;;
67900;Laerm;54700;51.796;10.956;2024-01-10T05:28:41;63.67;42.81;75.68;;
67900;Laerm;54700;51.796;10.956;2024-01-10T05:31:08;64.23;38.98;73.69;;
67900;Laerm;54700;51.796;10.956;2024-01-10T05:33:35;63.45;47.15;70.73;;
67900;Laerm;54700;51.796;10.956;2024-01-10T05:36:03;65.14;40.70;72.88;;
67900;Laerm;54700;51.796;10.956;2024-01-10T05:38:31;64.73;47.69;72.87;;
67900;Laerm;54700;51.796;10.956;2024-01-10T05:40:57;63.85;39.23;72.39;;
67900;Laerm;54700;51.796;10.956;2024-01-10T05:43:24;64.47;41.90;73.20;;
67900;Laerm;54700;51.796;10.956;2024-01-10T05:45:51;63.99;43.07;76.88;;
67900;Laerm;54700;51.796;10.956;2024-01-10T05:48:18;62.86;34.71;76.32;;
67900;Laerm;54700;51.796;10.956;2024-01-10T05:50:45;62.61;43.59;74.20;;
67900;Laerm;54700;51.796;10.956;2024-01-10T05:53:14;64.96;44.75;75.20;;
67900;Laerm;54700;51.796;10.956;2024-01-10T05:55:42;65.39;53.60;75.83;;
67900;Laerm;54700;51.796;10.956;2024-01-10T05:58:18;64.36;45.49;75.71;;
67900;Laerm;54700;51.796;10.956;2024-01-10T06:00:46;65.26;40.57;78.47;;
67900;Laerm;54700;51.796;10.956;2024-01-10T06:03:13;64.51;50.24;74.61;;
67900;Laerm;54700;51.796;10.956;2024-01-10T06:05:40;64.80;50.52;73.74;;
67900;Laerm;54700;51.796;10.956;2024-01-10T06:08:07;63.75;39.70;73.21;;
67900;Laerm;54700;51.796;10.956;2024-01-10T06:10:35;64.07;43.06;75.47;;
67900;Laerm;54700;51.796;10.956;2024-01-10T06:13:02;64.66;41.49;73.22;;
67900;Laerm;54700;51.796;10.956;2024-01-10T06:15:29;65.04;50.32;72.77;;
67900;Laerm;54700;51.796;10.956;2024-01-10T06:17:56;62.59;37.20;70.47;;
67900;Laerm;54700;51.796;10.956;2024-01-10T06:20:23;63.18;39.92;70.68;;
67900;Laerm;54700;51.796;10.956;2024-01-10T06:22:50;65.88;52.02;76.72;;
67900;Laerm;54700;51.796;10.956;2024-01-10T06:25:17;63.43;37.29;71.44;;
67900;Laerm;54700;51.796;10.956;2024-01-10T06:27:46;65.70;50.80;73.31;;
67900;Laerm;54700;51.796;10.956;2024-01-10T06:30:13;62.78;40.68;70.91;;
67900;Laerm;54700;51.796;10.956;2024-01-10T06:32:40;65.94;42.31;76.17;;
67900;Laerm;54700;51.796;10.956;2024-01-10T06:35:07;63.18;41.03;74.35;;
67900;Laerm;54700;51.796;10.956;2024-01-10T06:37:35;62.58;40.27;71.29;;
67900;Laerm;54700;51.796;10.956;2024-01-10T06:40:02;62.60;34.60;70.18;;
67900;Laerm;54700;51.796;10.956;2024-01-10T06:42:31;63.78;37.12;72.60;;
67900;Laerm;54700;51.796;10.956;2024-01-10T06:45:00;63.07;42.46;75.79;;
67900;Laerm;54700;51.796;10.956;2024-01-10T06:47:27;63.63;50.44;73.81;;
67900;Laerm;54700;51.796;10.956;2024-01-10T06:49:54;64.61;43.73;75.90;;
67900;Laerm;54700;51.796;10.956;2024-01-10T06:52:20;66.96;46.19;77.68;;
67900;Laerm;54700;51.796;10.956;2024-01-10T06:54:50;66.04;54.00;74.72;;
67900;Laerm;54700;51.796;10.956;2024-01-10T06:57:17;66.12;53.74;76.80;;
67900;Laerm;54700;51.796;10.956;2024-01-10T06:59:46;64.70;49.21;71.87;;
67900;Laerm;54700;51.796;10.956;2024-01-10T07:02:15;64.69;44.53;74.62;;
67900;Laerm;54700;51.796;10.956;2024-01-10T07:04:43;62.95;49.37;71.18;;
67900;Laerm;54700;51.796;10.956;2024-01-10T07:07:13;60.56;38.48;70.18;;
67900;Laerm;54700;51.796;10.956;2024-01-10T07:09:40;62.50;37.05;73.35;;
67900;Laerm;54700;51.796;10.956;2024-01-10T07:12:07;58.07;34.74;70.77;;
67900;Laerm;54700;51.796;10.956;2024-01-10T07:14:34;72.43;36.28;85.08;;
67900;Laerm;54700;51.796;10.956;2024-01-10T07:17:01;78.35;51.03;91.23;;
67900;Laerm;54700;51.796;10.956;2024-01-10T07:19:30;84.19;53.96;97.47;;
67900;Laerm;54700;51.796;10.956;2024-01-10T07:21:57;66.08;43.32;79.03;;
67900;Laerm;54700;51.796;10.956;2024-01-10T07:24:24;60.81;36.66;73.04;;
67900;Laerm;54700;51.796;10.956;2024-01-10T07:26:52;62.92;38.49;73.28;;
67900;Laerm;54700;51.796;10.956;2024-01-10T07:29:19;64.09;39.04;73.25;;
67900;Laerm;54700;51.796;10.956;2024-01-10T07:31:54;63.14;36.10;74.26;;
67900;Laerm;54700;51.796;10.956;2024-01-10T07:34:22;65.35;46.89;73.21;;
67900;Laerm;54700;51.796;10.956;2024-01-10T07:36:51;65.22;42.39;75.02;;
67900;Laerm;54700;51.796;10.956;2024-01-10T07:39:21;62.71;35.62;73.77;;
67900;Laerm;54700;51.796;10.956;2024-01-10T07:41:48;67.27;47.02;74.63;;
67900;Laerm;54700;51.796;10.956;2024-01-10T07:44:20;64.37;39.13;72.14;;
67900;Laerm;54700;51.796;10.956;2024-01-10T07:46:48;64.29;44.21;72.66;;
67900;Laerm;54700;51.796;10.956;2024-01-10T07:49:17;68.12;45.66;78.88;;
67900;Laerm;54700;51.796;10.956;2024-01-10T07:51:47;64.99;42.73;74.57;;
67900;Laerm;54700;51.796;10.956;2024-01-10T07:54:17;65.20;48.52;79.63;;
67900;Laerm;54700;51.796;10.956;2024-01-10T07:56:50;62.57;36.82;73.75;;
67900;Laerm;54700;51.796;10.956;2024-01-10T07:59:19;63.88;37.17;73.23;;
67900;Laerm;54700;51.796;10.956;2024-01-10T08:01:54;65.11;37.94;74.05;;
67900;Laerm;54700;51.796;10.956;2024-01-10T08:04:22;64.92;48.98;76.04;;
67900;Laerm;54700;51.796;10.956;2024-01-10T08:06:49;65.56;46.47;76.02;;
67900;Laerm;54700;51.796;10.956;2024-01-10T08:09:19;60.41;36.29;71.55;;
67900;Laerm;54700;51.796;10.956;2024-01-10T08:11:47;56.22;33.36;71.50;;
67900;Laerm;54700;51.796;10.956;2024-01-10T08:14:16;73.30;45.98;97.26;;
67900;Laerm;54700;51.796;10.956;2024-01-10T08:16:48;64.63;42.71;72.40;;
67900;Laerm;54700;51.796;10.956;2024-01-10T08:19:19;63.86;35.47;74.89;;
67900;Laerm;54700;51.796;10.956;2024-01-10T08:21:46;65.54;38.93;77.39;;
67900;Laerm;54700;51.796;10.956;2024-01-10T08:24:13;64.73;39.54;72.54;;
67900;Laerm;54700;51.796;10.956;2024-01-10T08:26:46;63.60;46.93;72.83;;
67900;Laerm;54700;51.796;10.956;2024-01-10T08:29:15;64.50;37.82;72.11;;
67900;Laerm;54700;51.796;10.956;2024-01-10T08:31:47;63.97;38.77;73.40;;
67900;Laerm;54700;51.796;10.956;2024-01-10T08:34:14;68.21;37.75;87.12;;
67900;Laerm;54700;51.796;10.956;2024-01-10T08:36:44;64.69;38.04;72.59;;
67900;Laerm;54700;51.796;10.956;2024-01-10T08:39:12;64.70;35.52;72.49;;
67900;Laerm;54700;51.796;10.956;2024-01-10T08:41:39;62.99;37.00;72.22;;
67900;Laerm;54700;51.796;10.956;2024-01-10T08:44:11;63.94;37.22;79.03;;
67900;Laerm;54700;51.796;10.956;2024-01-10T08:46:38;65.37;47.75;76.24;;
67900;Laerm;54700;51.796;10.956;2024-01-10T08:49:17;65.94;40.31;77.71;;
67900;Laerm;54700;51.796;10.956;2024-01-10T08:51:45;65.44;48.06;72.23;;
67900;Laerm;54700;51.796;10.956;2024-01-10T08:54:19;64.45;45.53;76.41;;
67900;Laerm;54700;51.796;10.956;2024-01-10T08:56:50;64.54;42.92;72.15;;
67900;Laerm;54700;51.796;10.956;2024-01-10T08:59:21;64.60;39.12;71.93;;
67900;Laerm;54700;51.796;10.956;2024-01-10T09:01:50;65.17;40.65;79.43;;
67900;Laerm;54700;51.796;10.956;2024-01-10T09:04:18;63.93;38.30;80.31;;
67900;Laerm;54700;51.796;10.956;2024-01-10T09:06:46;65.56;40.70;77.68;;
67900;Laerm;54700;51.796;10.956;2024-01-10T09:09:14;66.16;39.15;75.82;;
67900;Laerm;54700;51.796;10.956;2024-01-10T09:11:46;65.58;42.98;75.49;;
67900;Laerm;54700;51.796;10.956;2024-01-10T09:14:14;65.69;40.60;73.37;;
67900;Laerm;54700;51.796;10.956;2024-01-10T09:16:42;65.40;45.85;72.96;;
67900;Laerm;54700;51.796;10.956;2024-01-10T09:19:09;66.72;51.82;74.10;;
67900;Laerm;54700;51.796;10.956;2024-01-10T09:21:37;65.75;54.06;72.20;;
67900;Laerm;54700;51.796;10.956;2024-01-10T09:24:05;65.35;47.83;80.18;;
67900;Laerm;54700;51.796;10.956;2024-01-10T09:26:36;66.13;46.90;76.20;;
67900;Laerm;54700;51.796;10.956;2024-01-10T09:29:03;63.70;38.61;72.89;;
67900;Laerm;54700;51.796;10.956;2024-01-10T09:31:31;61.96;36.48;77.40;;
67900;Laerm;54700;51.796;10.956;2024-01-10T09:34:00;65.58;43.07;72.65;;
67900;Laerm;54700;51.796;10.956;2024-01-10T09:36:27;65.64;48.36;74.13;;
67900;Laerm;54700;51.796;10.956;2024-01-10T09:38:56;64.23;42.84;73.36;;
67900;Laerm;54700;51.796;10.956;2024-01-10T09:41:28;65.74;47.74;73.04;;
67900;Laerm;54700;51.796;10.956;2024-01-10T09:43:55;65.78;38.37;73.05;;
67900;Laerm;54700;51.796;10.956;2024-01-10T09:46:22;65.50;40.39;72.31;;
67900;Laerm;54700;51.796;10.956;2024-01-10T09:48:50;64.41;45.16;72.33;;
67900;Laerm;54700;51.796;10.956;2024-01-10T09:51:18;64.61;34.70;72.45;;
67900;Laerm;54700;51.796;10.956;2024-01-10T09:53:48;65.61;48.43;71.76;;
67900;Laerm;54700;51.796;10.956;2024-01-10T09:56:20;64.32;42.67;74.98;;
67900;Laerm;54700;51.796;10.956;2024-01-10T09:58:49;66.67;45.28;77.09;;
67900;Laerm;54700;51.796;10.956;2024-01-10T10:01:20;65.48;42.06;72.82;;
67900;Laerm;54700;51.796;10.956;2024-01-10T10:03:49;64.07;44.17;74.41;;
67900;Laerm;54700;51.796;10.956;2024-01-10T10:06:16;65.50;47.10;72.77;;
67900;Laerm;54700;51.796;10.956;2024-01-10T10:08:45;66.22;46.19;76.03;;
67900;Laerm;54700;51.796;10.956;2024-01-10T10:11:12;62.94;36.73;71.82;;
67900;Laerm;54700;51.796;10.956;2024-01-10T10:13:40;62.14;35.93;71.73;;
67900;Laerm;54700;51.796;10.956;2024-01-10T10:16:08;65.40;45.31;72.75;;
67900;Laerm;54700;51.796;10.956;2024-01-10T10:18:39;64.71;44.68;73.48;;
67900;Laerm;54700;51.796;10.956;2024-01-10T10:21:08;67.78;44.34;81.46;;
67900;Laerm;54700;51.796;10.956;2024-01-10T10:23:36;66.91;43.94;78.24;;
67900;Laerm;54700;51.796;10.956;2024-01-10T10:26:15;63.28;43.24;72.52;;
67900;Laerm;54700;51.796;10.956;2024-01-10T10:28:46;63.20;43.65;73.05;;
67900;Laerm;54700;51.796;10.956;2024-01-10T10:31:14;65.14;38.42;85.34;;
67900;Laerm;54700;51.796;10.956;2024-01-10T10:33:50;66.19;45.39;78.40;;
67900;Laerm;54700;51.796;10.956;2024-01-10T10:36:17;64.56;39.60;73.29;;
67900;Laerm;54700;51.796;10.956;2024-01-10T10:38:46;64.13;36.59;72.55;;
67900;Laerm;54700;51.796;10.956;2024-01-10T10:41:18;66.20;38.92;75.05;;
67900;Laerm;54700;51.796;10.956;2024-01-10T10:43:49;65.39;39.96;72.45;;
67900;Laerm;54700;51.796;10.956;2024-01-10T10:46:20;65.04;41.60;72.83;;
67900;Laerm;54700;51.796;10.956;2024-01-10T10:48:48;64.14;39.54;72.15;;
67900;Laerm;54700;51.796;10.956;2024-01-10T10:51:19;65.65;43.49;77.56;;
67900;Laerm;54700;51.796;10.956;2024-01-10T10:53:50;64.50;42.70;71.95;;
67900;Laerm;54700;51.796;10.956;2024-01-10T10:56:27;64.95;45.69;77.73;;
67900;Laerm;54700;51.796;10.956;2024-01-10T10:58:57;65.11;48.67;76.43;;
67900;Laerm;54700;51.796;10.956;2024-01-10T11:01:26;67.02;49.50;77.53;;
67900;Laerm;54700;51.796;10.956;2024-01-10T11:03:58;64.04;41.88;73.76;;
67900;Laerm;54700;51.796;10.956;2024-01-10T11:06:26;65.68;46.91;74.98;;
67900;Laerm;54700;51.796;10.956;2024-01-10T11:08:59;64.27;48.28;75.84;;
67900;Laerm;54700;51.796;10.956;2024-01-10T11:11:39;62.51;39.86;71.05;;
67900;Laerm;54700;51.796;10.956;2024-01-10T11:14:22;64.57;47.25;73.85;;
67900;Laerm;54700;51.796;10.956;2024-01-10T11:17:11;64.41;43.05;71.84;;
67900;Laerm;54700;51.796;10.956;2024-01-10T11:19:58;64.06;37.50;72.49;;
67900;Laerm;54700;51.796;10.956;2024-01-10T11:22:53;64.09;36.02;76.67;;
67900;Laerm;54700;51.796;10.956;2024-01-10T11:25:23;63.62;35.64;73.12;;
67900;Laerm;54700;51.796;10.956;2024-01-10T11:27:53;62.44;35.17;71.31;;
67900;Laerm;54700;51.796;10.956;2024-01-10T11:30:32;65.18;43.60;74.21;;
67900;Laerm;54700;51.796;10.956;2024-01-10T11:33:01;65.10;46.81;75.02;;
67900;Laerm;54700;51.796;10.956;2024-01-10T11:35:30;64.59;40.28;73.83;;
67900;Laerm;54700;51.796;10.956;2024-01-10T11:37:59;64.75;43.36;76.15;;
67900;Laerm;54700;51.796;10.956;2024-01-10T11:40:46;64.85;36.08;74.23;;
67900;Laerm;54700;51.796;10.956;2024-01-10T11:43:15;63.73;39.04;72.19;;
67900;Laerm;54700;51.796;10.956;2024-01-10T11:45:51;64.05;45.25;74.83;;
67900;Laerm;54700;51.796;10.956;2024-01-10T11:48:26;64.40;34.04;71.91;;
67900;Laerm;54700;51.796;10.956;2024-01-10T11:50:58;64.41;50.27;72.24;;
67900;Laerm;54700;51.796;10.956;2024-01-10T11:53:42;63.08;35.72;73.65;;
67900;Laerm;54700;51.796;10.956;2024-01-10T11:56:15;65.39;45.32;72.54;;
67900;Laerm;54700;51.796;10.956;2024-01-10T11:59:06;64.03;42.84;76.07;;
67900;Laerm;54700;51.796;10.956;2024-01-10T12:01:38;64.60;49.51;72.84;;
67900;Laerm;54700;51.796;10.956;2024-01-10T12:04:06;64.13;44.45;74.25;;
67900;Laerm;54700;51.796;10.956;2024-01-10T12:06:36;64.41;39.45;71.22;;
67900;Laerm;54700;51.796;10.956;2024-01-10T12:09:07;63.51;38.95;74.71;;
67900;Laerm;54700;51.796;10.956;2024-01-10T12:11:35;64.14;36.72;72.85;;
67900;Laerm;54700;51.796;10.956;2024-01-10T12:14:06;62.89;37.28;75.26;;
67900;Laerm;54700;51.796;10.956;2024-01-10T12:16:33;62.81;37.99;72.32;;
67900;Laerm;54700;51.796;10.956;2024-01-10T12:19:02;61.16;36.03;70.53;;
67900;Laerm;54700;51.796;10.956;2024-01-10T12:21:30;62.37;36.26;72.43;;
67900;Laerm;54700;51.796;10.956;2024-01-10T12:23:58;63.94;38.48;74.25;;
67900;Laerm;54700;51.796;10.956;2024-01-10T12:26:26;69.20;55.37;78.18;;
67900;Laerm;54700;51.796;10.956;2024-01-10T12:28:54;59.65;49.00;76.01;;
67900;Laerm;54700;51.796;10.956;2024-01-10T12:31:27;63.26;39.71;72.84;;
67900;Laerm;54700;51.796;10.956;2024-01-10T12:33:55;64.96;44.21;72.27;;
67900;Laerm;54700;51.796;10.956;2024-01-10T12:36:22;63.29;39.70;72.61;;
67900;Laerm;54700;51.796;10.956;2024-01-10T12:38:51;63.53;39.02;76.09;;
67900;Laerm;54700;51.796;10.956;2024-01-10T12:41:19;62.64;40.38;71.08;;
67900;Laerm;54700;51.796;10.956;2024-01-10T12:43:49;63.99;38.85;74.44;;
67900;Laerm;54700;51.796;10.956;2024-01-10T12:46:19;61.34;39.19;75.57;;
67900;Laerm;54700;51.796;10.956;2024-01-10T12:49:01;62.99;49.74;76.27;;
67900;Laerm;54700;51.796;10.956;2024-01-10T12:51:29;64.36;48.76;73.26;;
67900;Laerm;54700;51.796;10.956;2024-01-10T12:53:58;65.22;39.78;73.88;;
67900;Laerm;54700;51.796;10.956;2024-01-10T12:56:25;65.93;48.55;74.14;;
67900;Laerm;54700;51.796;10.956;2024-01-10T12:58:53;63.49;40.45;70.18;;
67900;Laerm;54700;51.796;10.956;2024-01-10T13:01:21;63.37;37.76;72.43;;
67900;Laerm;54700;51.796;10.956;2024-01-10T13:03:49;64.35;41.33;72.47;;
67900;Laerm;54700;51.796;10.956;2024-01-10T13:06:17;62.86;38.26;71.11;;
67900;Laerm;54700;51.796;10.956;2024-01-10T13:08:51;63.12;37.09;73.04;;
67900;Laerm;54700;51.796;10.956;2024-01-10T13:11:20;65.85;36.22;76.74;;
67900;Laerm;54700;51.796;10.956;2024-01-10T13:13:47;62.63;41.52;72.48;;
67900;Laerm;54700;51.796;10.956;2024-01-10T13:16:15;64.42;39.28;72.69;;
67900;Laerm;54700;51.796;10.956;2024-01-10T13:18:42;64.46;33.50;72.36;;
67900;Laerm;54700;51.796;10.956;2024-01-10T13:21:12;64.76;35.53;71.38;;
67900;Laerm;54700;51.796;10.956;2024-01-10T13:23:43;63.66;43.26;73.33;;
67900;Laerm;54700;51.796;10.956;2024-01-10T13:26:11;65.52;39.26;83.21;;
67900;Laerm;54700;51.796;10.956;2024-01-10T13:28:38;63.75;37.23;73.06;;
67900;Laerm;54700;51.796;10.956;2024-01-10T13:31:09;62.29;37.83;71.28;;
67900;Laerm;54700;51.796;10.956;2024-01-10T13:33:36;65.63;42.19;74.23;;
67900;Laerm;54700;51.796;10.956;2024-01-10T13:36:04;63.36;33.20;75.79;;
67900;Laerm;54700;51.796;10.956;2024-01-10T13:38:43;63.86;35.99;72.14;;
67900;Laerm;54700;51.796;10.956;2024-01-10T13:41:17;65.79;41.90;83.18;;